sensor_id;sensor_type;location;lat;lon;timestamp;temperature;humidity
74359;DHT22;62792;46.236;6.040;2023-05-23T00:02:06;24.90;56.80
74359;DHT22;62792;46.236;6.040;2023-05-23T00:07:10;24.70;56.80
74359;DHT22;62792;46.236;6.040;2023-05-23T00:12:13;24.80;56.70
74359;DHT22;62792;46.236;6.040;2023-05-23T00:17:17;24.70;56.80
74359;DHT22;62792;46.236;6.040;2023-05-23T00:22:21;24.70;56.90
74359;DHT22;62792;46.236;6.040;2023-05-23T00:27:24;24.70;57.00
74359;DHT22;62792;46.236;6.040;2023-05-23T00:32:27;24.90;57.10
74359;DHT22;62792;46.236;6.040;2023-05-23T00:37:31;24.80;56.90
74359;DHT22;62792;46.236;6.040;2023-05-23T00:42:35;24.80;56.80
74359;DHT22;62792;46.236;6.040;2023-05-23T00:47:37;24.70;57.00
74359;DHT22;62792;46.236;6.040;2023-05-23T00:52:43;24.80;56.90
74359;DHT22;62792;46.236;6.040;2023-05-23T00:57:47;24.70;57.00
74359;DHT22;62792;46.236;6.040;2023-05-23T01:02:50;24.70;56.90
74359;DHT22;62792;46.236;6.040;2023-05-23T01:07:55;24.70;57.20
74359;DHT22;62792;46.236;6.040;2023-05-23T01:13:12;24.80;57.20
74359;DHT22;62792;46.236;6.040;2023-05-23T01:18:23;24.70;57.00
74359;DHT22;62792;46.236;6.040;2023-05-23T01:23:53;24.70;57.10
74359;DHT22;62792;46.236;6.040;2023-05-23T01:29:10;24.70;57.10
74359;DHT22;62792;46.236;6.040;2023-05-23T01:34:16;24.70;57.10
74359;DHT22;62792;46.236;6.040;2023-05-23T01:39:20;24.70;57.10
74359;DHT22;62792;46.236;6.040;2023-05-23T01:44:25;24.60;57.20
74359;DHT22;62792;46.236;6.040;2023-05-23T01:49:28;24.70;57.10
74359;DHT22;62792;46.236;6.040;2023-05-23T01:54:31;24.70;56.90
74359;DHT22;62792;46.236;6.040;2023-05-23T01:59:37;24.60;57.10
74359;DHT22;62792;46.236;6.040;2023-05-23T02:04:40;24.60;56.90
74359;DHT22;62792;46.236;6.040;2023-05-23T02:09:43;24.60;57.10
74359;DHT22;62792;46.236;6.040;2023-05-23T02:14:47;24.60;57.10
74359;DHT22;62792;46.236;6.040;2023-05-23T02:19:52;24.50;57.10
74359;DHT22;62792;46.236;6.040;2023-05-23T02:24:55;24.60;57.00
74359;DHT22;62792;46.236;6.040;2023-05-23T02:29:59;24.60;57.10
74359;DHT22;62792;46.236;6.040;2023-05-23T02:35:02;24.60;57.20
74359;DHT22;62792;46.236;6.040;2023-05-23T02:40:06;24.60;57.10
74359;DHT22;62792;46.236;6.040;2023-05-23T02:45:11;24.50;57.10
74359;DHT22;62792;46.236;6.040;2023-05-23T02:50:14;24.60;57.00
74359;DHT22;62792;46.236;6.040;2023-05-23T02:55:17;24.50;57.10
74359;DHT22;62792;46.236;6.040;2023-05-23T03:00:21;24.50;57.00
74359;DHT22;62792;46.236;6.040;2023-05-23T03:05:24;24.50;57.10
74359;DHT22;62792;46.236;6.040;2023-05-23T03:10:27;24.60;56.80
74359;DHT22;62792;46.236;6.040;2023-05-23T03:15:32;24.50;56.80
74359;DHT22;62792;46.236;6.040;2023-05-23T03:20:35;24.50;57.10
74359;DHT22;62792;46.236;6.040;2023-05-23T03:25:37;24.50;56.80
74359;DHT22;62792;46.236;6.040;2023-05-23T03:30:42;24.50;56.70
74359;DHT22;62792;46.236;6.040;2023-05-23T03:35:45;24.60;57.00
74359;DHT22;62792;46.236;6.040;2023-05-23T03:40:48;24.50;56.70
74359;DHT22;62792;46.236;6.040;2023-05-23T03:45:52;24.50;57.10
74359;DHT22;62792;46.236;6.040;2023-05-23T03:50:55;24.50;56.70
74359;DHT22;62792;46.236;6.040;2023-05-23T03:55:58;24.50;57.10
74359;DHT22;62792;46.236;6.040;2023-05-23T04:01:02;24.60;56.70
74359;DHT22;62792;46.236;6.040;2023-05-23T04:06:05;24.40;56.70
74359;DHT22;62792;46.236;6.040;2023-05-23T04:11:08;24.50;56.70
74359;DHT22;62792;46.236;6.040;2023-05-23T04:16:12;24.50;56.70
74359;DHT22;62792;46.236;6.040;2023-05-23T04:21:15;24.50;56.60
74359;DHT22;62792;46.236;6.040;2023-05-23T04:26:18;24.50;56.70
74359;DHT22;62792;46.236;6.040;2023-05-23T04:31:23;24.50;56.60
74359;DHT22;62792;46.236;6.040;2023-05-23T04:36:26;24.50;56.70
74359;DHT22;62792;46.236;6.040;2023-05-23T04:41:30;24.50;56.50
74359;DHT22;62792;46.236;6.040;2023-05-23T04:46:35;24.50;56.70
74359;DHT22;62792;46.236;6.040;2023-05-23T04:51:42;24.50;56.60
74359;DHT22;62792;46.236;6.040;2023-05-23T04:56:45;24.50;56.50
74359;DHT22;62792;46.236;6.040;2023-05-23T05:01:49;24.50;56.40
74359;DHT22;62792;46.236;6.040;2023-05-23T05:06:52;24.50;56.60
74359;DHT22;62792;46.236;6.040;2023-05-23T05:11:56;24.50;56.50
74359;DHT22;62792;46.236;6.040;2023-05-23T05:17:00;24.50;56.40
74359;DHT22;62792;46.236;6.040;2023-05-23T05:22:04;24.50;56.50
74359;DHT22;62792;46.236;6.040;2023-05-23T05:27:08;24.60;56.30
74359;DHT22;62792;46.236;6.040;2023-05-23T05:32:13;24.60;56.30
74359;DHT22;62792;46.236;6.040;2023-05-23T05:37:16;24.50;56.20
74359;DHT22;62792;46.236;6.040;2023-05-23T05:42:20;24.60;56.50
74359;DHT22;62792;46.236;6.040;2023-05-23T05:47:26;24.60;56.40
74359;DHT22;62792;46.236;6.040;2023-05-23T05:52:29;24.50;56.50
74359;DHT22;62792;46.236;6.040;2023-05-23T05:57:32;24.60;56.10
74359;DHT22;62792;46.236;6.040;2023-05-23T06:02:37;24.60;56.20
74359;DHT22;62792;46.236;6.040;2023-05-23T06:07:41;24.60;56.30
74359;DHT22;62792;46.236;6.040;2023-05-23T06:12:44;24.60;56.20
74359;DHT22;62792;46.236;6.040;2023-05-23T06:17:48;24.60;56.30
74359;DHT22;62792;46.236;6.040;2023-05-23T06:22:51;24.60;56.10
74359;DHT22;62792;46.236;6.040;2023-05-23T06:27:54;24.70;56.30
74359;DHT22;62792;46.236;6.040;2023-05-23T06:32:59;24.60;56.20
74359;DHT22;62792;46.236;6.040;2023-05-23T06:38:02;24.60;56.10
74359;DHT22;62792;46.236;6.040;2023-05-23T06:43:05;24.60;56.20
74359;DHT22;62792;46.236;6.040;2023-05-23T06:48:09;24.50;56.20
74359;DHT22;62792;46.236;6.040;2023-05-23T06:53:12;24.60;56.10
74359;DHT22;62792;46.236;6.040;2023-05-23T06:58:20;24.60;56.20
74359;DHT22;62792;46.236;6.040;2023-05-23T07:03:26;24.60;56.30
74359;DHT22;62792;46.236;6.040;2023-05-23T07:08:29;24.60;56.20
74359;DHT22;62792;46.236;6.040;2023-05-23T07:13:32;24.70;56.20
74359;DHT22;62792;46.236;6.040;2023-05-23T07:18:36;24.60;56.30
74359;DHT22;62792;46.236;6.040;2023-05-23T07:23:39;24.60;56.40
74359;DHT22;62792;46.236;6.040;2023-05-23T07:28:42;24.60;56.60
74359;DHT22;62792;46.236;6.040;2023-05-23T07:33:47;24.70;56.70
74359;DHT22;62792;46.236;6.040;2023-05-23T07:38:50;24.70;56.60
74359;DHT22;62792;46.236;6.040;2023-05-23T07:43:53;24.70;56.50
74359;DHT22;62792;46.236;6.040;2023-05-23T07:48:58;24.70;56.50
74359;DHT22;62792;46.236;6.040;2023-05-23T07:54:01;24.70;56.70
74359;DHT22;62792;46.236;6.040;2023-05-23T07:59:04;24.70;56.70
74359;DHT22;62792;46.236;6.040;2023-05-23T08:04:08;24.80;56.50
74359;DHT22;62792;46.236;6.040;2023-05-23T08:09:11;24.80;56.70
74359;DHT22;62792;46.236;6.040;2023-05-23T08:14:14;24.80;56.50
74359;DHT22;62792;46.236;6.040;2023-05-23T08:19:18;24.80;56.50
74359;DHT22;62792;46.236;6.040;2023-05-23T08:24:22;24.80;56.80
74359;DHT22;62792;46.236;6.040;2023-05-23T08:29:25;24.90;56.60
74359;DHT22;62792;46.236;6.040;2023-05-23T08:34:30;24.80;56.50
74359;DHT22;62792;46.236;6.040;2023-05-23T08:39:33;24.80;56.40
74359;DHT22;62792;46.236;6.040;2023-05-23T08:44:36;24.90;56.70
74359;DHT22;62792;46.236;6.040;2023-05-23T08:49:42;24.90;56.60
74359;DHT22;62792;46.236;6.040;2023-05-23T08:54:45;24.90;56.50
74359;DHT22;62792;46.236;6.040;2023-05-23T08:59:48;24.90;56.60
74359;DHT22;62792;46.236;6.040;2023-05-23T09:04:53;24.90;56.40
74359;DHT22;62792;46.236;6.040;2023-05-23T09:09:56;24.90;56.40
74359;DHT22;62792;46.236;6.040;2023-05-23T09:14:59;25.00;56.20
74359;DHT22;62792;46.236;6.040;2023-05-23T09:20:03;25.00;56.30
74359;DHT22;62792;46.236;6.040;2023-05-23T09:25:13;25.10;56.20
74359;DHT22;62792;46.236;6.040;2023-05-23T09:30:16;25.10;56.40
74359;DHT22;62792;46.236;6.040;2023-05-23T09:35:21;25.20;56.20
74359;DHT22;62792;46.236;6.040;2023-05-23T09:40:28;25.20;56.20
74359;DHT22;62792;46.236;6.040;2023-05-23T09:45:32;25.20;56.10
74359;DHT22;62792;46.236;6.040;2023-05-23T09:50:36;25.30;56.10
74359;DHT22;62792;46.236;6.040;2023-05-23T09:55:40;25.30;56.00
74359;DHT22;62792;46.236;6.040;2023-05-23T10:00:43;25.20;56.00
74359;DHT22;62792;46.236;6.040;2023-05-23T10:05:49;25.20;58.00
74359;DHT22;62792;46.236;6.040;2023-05-23T10:16:37;25.30;58.80
74359;DHT22;62792;46.236;6.040;2023-05-23T10:21:44;25.10;59.30
74359;DHT22;62792;46.236;6.040;2023-05-23T10:26:52;25.00;59.50
74359;DHT22;62792;46.236;6.040;2023-05-23T10:31:55;25.30;59.90
74359;DHT22;62792;46.236;6.040;2023-05-23T10:37:01;25.40;59.70
74359;DHT22;62792;46.236;6.040;2023-05-23T10:42:07;25.50;60.60
74359;DHT22;62792;46.236;6.040;2023-05-23T10:47:13;25.60;60.80
74359;DHT22;62792;46.236;6.040;2023-05-23T10:52:29;25.60;60.10
74359;DHT22;62792;46.236;6.040;2023-05-23T10:57:40;25.70;59.70
74359;DHT22;62792;46.236;6.040;2023-05-23T11:02:52;25.80;58.70
74359;DHT22;62792;46.236;6.040;2023-05-23T11:08:07;25.60;58.30
74359;DHT22;62792;46.236;6.040;2023-05-23T11:13:11;25.70;58.40
74359;DHT22;62792;46.236;6.040;2023-05-23T11:18:21;25.80;58.60
74359;DHT22;62792;46.236;6.040;2023-05-23T11:23:28;25.80;58.40
74359;DHT22;62792;46.236;6.040;2023-05-23T11:28:54;25.70;58.30
74359;DHT22;62792;46.236;6.040;2023-05-23T11:33:57;25.70;58.20
74359;DHT22;62792;46.236;6.040;2023-05-23T11:39:02;25.60;58.10
74359;DHT22;62792;46.236;6.040;2023-05-23T11:44:11;25.60;58.90
74359;DHT22;62792;46.236;6.040;2023-05-23T11:49:14;25.50;59.00
74359;DHT22;62792;46.236;6.040;2023-05-23T11:54:19;25.50;59.20
74359;DHT22;62792;46.236;6.040;2023-05-23T11:59:25;25.50;60.20
74359;DHT22;62792;46.236;6.040;2023-05-23T12:04:28;25.50;60.20
74359;DHT22;62792;46.236;6.040;2023-05-23T12:09:38;25.50;59.40
74359;DHT22;62792;46.236;6.040;2023-05-23T12:14:43;25.60;59.00
74359;DHT22;62792;46.236;6.040;2023-05-23T12:19:46;25.60;59.10
74359;DHT22;62792;46.236;6.040;2023-05-23T12:24:53;25.60;58.60
74359;DHT22;62792;46.236;6.040;2023-05-23T12:30:06;25.70;58.50
74359;DHT22;62792;46.236;6.040;2023-05-23T12:35:11;25.80;58.70
74359;DHT22;62792;46.236;6.040;2023-05-23T12:40:16;25.80;58.40
74359;DHT22;62792;46.236;6.040;2023-05-23T12:45:21;25.90;58.10
74359;DHT22;62792;46.236;6.040;2023-05-23T12:50:25;26.00;58.10
74359;DHT22;62792;46.236;6.040;2023-05-23T12:55:29;26.20;57.80
74359;DHT22;62792;46.236;6.040;2023-05-23T13:00:32;26.20;57.50
74359;DHT22;62792;46.236;6.040;2023-05-23T13:05:35;26.20;57.40
74359;DHT22;62792;46.236;6.040;2023-05-23T13:10:39;26.40;57.10
74359;DHT22;62792;46.236;6.040;2023-05-23T13:15:42;26.30;57.00
74359;DHT22;62792;46.236;6.040;2023-05-23T13:20:48;26.30;56.90
74359;DHT22;62792;46.236;6.040;2023-05-23T13:25:52;26.30;57.10
74359;DHT22;62792;46.236;6.040;2023-05-23T13:30:55;26.40;55.90
74359;DHT22;62792;46.236;6.040;2023-05-23T13:35:58;26.50;55.80
74359;DHT22;62792;46.236;6.040;2023-05-23T13:41:03;26.50;56.40
74359;DHT22;62792;46.236;6.040;2023-05-23T13:46:06;25.90;58.30
74359;DHT22;62792;46.236;6.040;2023-05-23T13:51:09;26.00;58.60
74359;DHT22;62792;46.236;6.040;2023-05-23T13:56:13;26.20;57.80
74359;DHT22;62792;46.236;6.040;2023-05-23T14:01:17;25.80;58.70
74359;DHT22;62792;46.236;6.040;2023-05-23T14:06:20;25.80;58.90
74359;DHT22;62792;46.236;6.040;2023-05-23T14:11:24;26.20;58.40
74359;DHT22;62792;46.236;6.040;2023-05-23T14:16:28;26.40;57.20
74359;DHT22;62792;46.236;6.040;2023-05-23T14:21:32;26.10;58.10
74359;DHT22;62792;46.236;6.040;2023-05-23T14:26:36;26.00;58.20
74359;DHT22;62792;46.236;6.040;2023-05-23T14:31:39;26.10;58.00
74359;DHT22;62792;46.236;6.040;2023-05-23T14:36:42;26.20;57.80
74359;DHT22;62792;46.236;6.040;2023-05-23T14:41:46;26.30;57.60
74359;DHT22;62792;46.236;6.040;2023-05-23T14:46:49;26.40;56.50
74359;DHT22;62792;46.236;6.040;2023-05-23T14:51:52;26.30;57.50
74359;DHT22;62792;46.236;6.040;2023-05-23T14:56:57;25.90;58.20
74359;DHT22;62792;46.236;6.040;2023-05-23T15:02:00;25.80;58.90
74359;DHT22;62792;46.236;6.040;2023-05-23T15:07:04;25.50;60.30
74359;DHT22;62792;46.236;6.040;2023-05-23T15:12:08;25.50;61.40
74359;DHT22;62792;46.236;6.040;2023-05-23T15:17:11;25.50;62.10
74359;DHT22;62792;46.236;6.040;2023-05-23T15:22:20;25.40;63.00
74359;DHT22;62792;46.236;6.040;2023-05-23T15:27:31;25.50;63.10
74359;DHT22;62792;46.236;6.040;2023-05-23T15:32:34;25.40;63.80
74359;DHT22;62792;46.236;6.040;2023-05-23T15:37:38;25.50;63.70
74359;DHT22;62792;46.236;6.040;2023-05-23T15:42:42;25.50;63.20
74359;DHT22;62792;46.236;6.040;2023-05-23T15:47:45;25.40;63.70
74359;DHT22;62792;46.236;6.040;2023-05-23T15:52:48;25.30;63.00
74359;DHT22;62792;46.236;6.040;2023-05-23T15:57:52;25.30;63.30
74359;DHT22;62792;46.236;6.040;2023-05-23T16:02:56;25.30;63.20
74359;DHT22;62792;46.236;6.040;2023-05-23T16:07:59;25.30;63.00
74359;DHT22;62792;46.236;6.040;2023-05-23T16:13:03;25.30;62.90
74359;DHT22;62792;46.236;6.040;2023-05-23T16:18:06;25.30;62.60
74359;DHT22;62792;46.236;6.040;2023-05-23T16:23:09;25.40;62.30
74359;DHT22;62792;46.236;6.040;2023-05-23T16:28:13;25.40;62.30
74359;DHT22;62792;46.236;6.040;2023-05-23T16:33:19;25.80;62.10
74359;DHT22;62792;46.236;6.040;2023-05-23T16:38:22;26.00;61.30
74359;DHT22;62792;46.236;6.040;2023-05-23T16:43:26;26.30;60.90
74359;DHT22;62792;46.236;6.040;2023-05-23T16:48:29;26.80;58.60
74359;DHT22;62792;46.236;6.040;2023-05-23T16:53:32;26.80;58.70
74359;DHT22;62792;46.236;6.040;2023-05-23T16:58:36;27.70;56.90
74359;DHT22;62792;46.236;6.040;2023-05-23T17:03:39;28.50;55.20
74359;DHT22;62792;46.236;6.040;2023-05-23T17:08:42;28.00;55.80
74359;DHT22;62792;46.236;6.040;2023-05-23T17:13:49;27.50;56.60
74359;DHT22;62792;46.236;6.040;2023-05-23T17:18:53;27.20;57.40
74359;DHT22;62792;46.236;6.040;2023-05-23T17:23:56;27.10;57.80
74359;DHT22;62792;46.236;6.040;2023-05-23T17:29:00;27.00;58.10
74359;DHT22;62792;46.236;6.040;2023-05-23T17:34:03;26.80;58.10
74359;DHT22;62792;46.236;6.040;2023-05-23T17:39:06;26.80;58.40
74359;DHT22;62792;46.236;6.040;2023-05-23T17:44:11;26.80;58.10
74359;DHT22;62792;46.236;6.040;2023-05-23T17:49:14;26.80;58.30
74359;DHT22;62792;46.236;6.040;2023-05-23T17:54:18;26.80;58.30
74359;DHT22;62792;46.236;6.040;2023-05-23T17:59:22;26.80;58.50
74359;DHT22;62792;46.236;6.040;2023-05-23T18:04:25;26.80;58.30
74359;DHT22;62792;46.236;6.040;2023-05-23T18:09:28;26.70;58.40
74359;DHT22;62792;46.236;6.040;2023-05-23T18:14:32;26.70;58.50
74359;DHT22;62792;46.236;6.040;2023-05-23T18:19:35;26.70;58.40
74359;DHT22;62792;46.236;6.040;2023-05-23T18:24:38;26.60;58.60
74359;DHT22;62792;46.236;6.040;2023-05-23T18:29:43;26.50;58.70
74359;DHT22;62792;46.236;6.040;2023-05-23T18:34:46;26.40;58.80
74359;DHT22;62792;46.236;6.040;2023-05-23T18:39:49;26.40;58.90
74359;DHT22;62792;46.236;6.040;2023-05-23T18:44:53;26.30;60.10
74359;DHT22;62792;46.236;6.040;2023-05-23T18:49:56;26.40;59.30
74359;DHT22;62792;46.236;6.040;2023-05-23T18:54:59;26.20;60.10
74359;DHT22;62792;46.236;6.040;2023-05-23T19:00:04;26.20;60.10
74359;DHT22;62792;46.236;6.040;2023-05-23T19:05:08;26.20;60.00
74359;DHT22;62792;46.236;6.040;2023-05-23T19:10:11;26.10;60.10
74359;DHT22;62792;46.236;6.040;2023-05-23T19:15:15;26.10;60.20
74359;DHT22;62792;46.236;6.040;2023-05-23T19:20:19;26.00;60.30
74359;DHT22;62792;46.236;6.040;2023-05-23T19:25:22;26.00;60.50
74359;DHT22;62792;46.236;6.040;2023-05-23T19:30:26;26.00;60.10
74359;DHT22;62792;46.236;6.040;2023-05-23T19:35:29;25.90;60.30
74359;DHT22;62792;46.236;6.040;2023-05-23T19:40:32;26.00;60.50
74359;DHT22;62792;46.236;6.040;2023-05-23T19:45:36;25.90;60.80
74359;DHT22;62792;46.236;6.040;2023-05-23T19:50:39;26.00;60.50
74359;DHT22;62792;46.236;6.040;2023-05-23T19:55:44;25.90;60.50
74359;DHT22;62792;46.236;6.040;2023-05-23T20:00:48;25.90;60.50
74359;DHT22;62792;46.236;6.040;2023-05-23T20:05:51;25.80;60.50
74359;DHT22;62792;46.236;6.040;2023-05-23T20:10:55;25.80;60.90
74359;DHT22;62792;46.236;6.040;2023-05-23T20:16:01;25.80;60.60
74359;DHT22;62792;46.236;6.040;2023-05-23T20:21:04;25.80;60.70
74359;DHT22;62792;46.236;6.040;2023-05-23T20:26:07;25.70;60.90
74359;DHT22;62792;46.236;6.040;2023-05-23T20:31:11;25.70;60.80
74359;DHT22;62792;46.236;6.040;2023-05-23T20:36:15;25.70;60.90
74359;DHT22;62792;46.236;6.040;2023-05-23T20:41:20;25.70;60.80
74359;DHT22;62792;46.236;6.040;2023-05-23T20:46:25;25.60;60.90
74359;DHT22;62792;46.236;6.040;2023-05-23T20:51:28;25.60;61.10
74359;DHT22;62792;46.236;6.040;2023-05-23T20:56:31;25.60;60.80
74359;DHT22;62792;46.236;6.040;2023-05-23T21:01:35;25.60;60.90
74359;DHT22;62792;46.236;6.040;2023-05-23T21:06:38;25.60;60.90
74359;DHT22;62792;46.236;6.040;2023-05-23T21:11:41;25.60;60.70
74359;DHT22;62792;46.236;6.040;2023-05-23T21:16:45;25.50;60.90
74359;DHT22;62792;46.236;6.040;2023-05-23T21:21:49;25.50;61.00
74359;DHT22;62792;46.236;6.040;2023-05-23T21:26:53;25.50;60.70
74359;DHT22;62792;46.236;6.040;2023-05-23T21:31:58;25.60;60.90
74359;DHT22;62792;46.236;6.040;2023-05-23T21:37:01;25.60;60.90
74359;DHT22;62792;46.236;6.040;2023-05-23T21:42:05;25.60;60.70
74359;DHT22;62792;46.236;6.040;2023-05-23T21:47:09;25.60;60.80
74359;DHT22;62792;46.236;6.040;2023-05-23T21:52:12;25.50;60.90
74359;DHT22;62792;46.236;6.040;2023-05-23T21:57:16;25.60;60.70
74359;DHT22;62792;46.236;6.040;2023-05-23T22:02:20;25.50;60.50
74359;DHT22;62792;46.236;6.040;2023-05-23T22:07:23;25.40;60.60
74359;DHT22;62792;46.236;6.040;2023-05-23T22:12:26;25.50;60.50
74359;DHT22;62792;46.236;6.040;2023-05-23T22:17:30;25.50;60.90
74359;DHT22;62792;46.236;6.040;2023-05-23T22:22:34;25.50;60.60
74359;DHT22;62792;46.236;6.040;2023-05-23T22:27:40;25.50;60.60
74359;DHT22;62792;46.236;6.040;2023-05-23T22:32:45;25.40;60.50
74359;DHT22;62792;46.236;6.040;2023-05-23T22:37:48;25.40;60.60
74359;DHT22;62792;46.236;6.040;2023-05-23T22:42:50;25.40;60.60
74359;DHT22;62792;46.236;6.040;2023-05-23T22:47:56;25.40;60.40
74359;DHT22;62792;46.236;6.040;2023-05-23T22:53:01;25.30;60.50
74359;DHT22;62792;46.236;6.040;2023-05-23T22:58:04;25.40;60.60
74359;DHT22;62792;46.236;6.040;2023-05-23T23:03:10;25.40;60.40
74359;DHT22;62792;46.236;6.040;2023-05-23T23:08:15;25.40;60.50
74359;DHT22;62792;46.236;6.040;2023-05-23T23:13:19;25.40;60.50
74359;DHT22;62792;46.236;6.040;2023-05-23T23:18:24;25.40;60.50
74359;DHT22;62792;46.236;6.040;2023-05-23T23:23:27;25.40;60.30
74359;DHT22;62792;46.236;6.040;2023-05-23T23:28:31;25.30;60.10
74359;DHT22;62792;46.236;6.040;2023-05-23T23:33:35;25.30;60.10
74359;DHT22;62792;46.236;6.040;2023-05-23T23:38:38;25.40;60.30
74359;DHT22;62792;46.236;6.040;2023-05-23T23:43:41;25.30;60.00
74359;DHT22;62792;46.236;6.040;2023-05-23T23:48:45;25.30;60.20
74359;DHT22;62792;46.236;6.040;2023-05-23T23:53:48;25.20;60.00
74359;DHT22;62792;46.236;6.040;2023-05-23T23:58:54;25.30;60.10
